Airfield :
LOGIN :

Register | Disclaimer

   EN    FR    IT 

 










Legend :    VFR   Marginal VFR   IFR   Intensive IFR   Very Intensive IFR
Visi :
Ceiling :
>= 8 km
>= 3000ft
5 to 8 km
1000 to 3000 ft
1500m to 5 km
500 to 1000 ft
800 to 1500m
200 to 500 ft
< 800m
< 200 ft
Symbols :   Thunderstorms  Fog  Heavy snow  Heavy precipitations  Wind > 20 kt
SIGMETs :     Misc.  Thunderstorms  Icing  Turbulence  Mountain Waves  Volcanic Ashes






- Airport Elevation : 915 ft
- IATA code : LUG


LSZA - Lugano

CURRENT METAR :
  • 200650Z VRB01KT CAVOK M01/M05 Q1040 NOSIG

EXPIRED METARs :
  • 200620Z VRB01KT CAVOK M01/M05 Q1040 NOSIG
  • 200550Z AUTO VRB01KT CAVOK M00/M07 Q1039
  • 200520Z AUTO VRB02KT CAVOK M00/M08 Q1039
  • 200450Z AUTO 19004KT 150V220 9999 NCD 01/M07 Q1038
  • 200420Z AUTO 20004KT 150V250 CAVOK 00/M07 Q1038

TAF TAF LSZA
Valid from the 20 at 06:00 until the 20 at 15:00 UTC


200525Z 2006/2015 VRB03KT CAVOK
TEMPO 2006/2012 9999 SCT080
ATIS : +41 22 417 40 88



MET'MAP, your aeronautical weather chart ! - Copyright ORBIFLY December 2007 - Disclaimer

ORBIFLY MET'MAP TEAM :

Programming & Development : Alexandra Zaïnal
Concept & original design : Baudouin d'Aumeries
Assistance for programming : Marc-Olivier Méhu
Technical & hardware support : Manuel Goepfert

Contact : metmap@orbifly.com




SOURCES & CREDITS :

   NOAA